createdAt,value
2022-09-29T00:00:13.839Z,8.30
2022-09-29T00:02:41.657Z,8.77
2022-09-29T00:05:10.035Z,9.35
2022-09-29T00:07:37.770Z,8.65
2022-09-29T00:10:07.284Z,8.82
2022-09-29T00:12:35.053Z,8.93
2022-09-29T00:15:02.975Z,8.10
2022-09-29T00:17:30.686Z,8.35
2022-09-29T00:19:58.565Z,8.35
2022-09-29T00:22:26.372Z,8.82
2022-09-29T00:24:54.137Z,8.95
2022-09-29T00:27:23.319Z,9.00
2022-09-29T00:29:51.070Z,11.43
2022-09-29T00:32:18.842Z,10.70
2022-09-29T00:34:46.571Z,9.52
2022-09-29T00:37:14.517Z,9.90
2022-09-29T00:39:42.313Z,9.70
2022-09-29T00:42:11.313Z,9.77
2022-09-29T00:45:03.217Z,9.87
2022-09-29T00:47:32.338Z,10.05
2022-09-29T00:50:03.152Z,10.13
2022-09-29T00:52:34.939Z,9.65
2022-09-29T00:55:06.013Z,9.98
2022-09-29T00:57:37.646Z,9.10
2022-09-29T01:00:09.533Z,9.37
2022-09-29T01:02:41.284Z,11.15
2022-09-29T01:05:12.415Z,9.48
2022-09-29T01:07:40.772Z,9.60
2022-09-29T01:10:09.386Z,10.13
2022-09-29T01:12:37.180Z,11.40
2022-09-29T01:15:05.322Z,10.30
2022-09-29T01:17:34.478Z,9.60
2022-09-29T01:20:09.110Z,9.18
2022-09-29T01:23:15.099Z,9.00
2022-09-29T01:26:01.591Z,8.82
2022-09-29T01:28:46.237Z,9.65
2022-09-29T01:31:22.537Z,9.45
2022-09-29T01:33:58.395Z,9.13
2022-09-29T01:36:35.036Z,10.50
2022-09-29T01:39:23.218Z,9.45
2022-09-29T01:41:52.869Z,9.18
2022-09-29T01:44:25.539Z,9.85
2022-09-29T01:46:57.606Z,9.63
2022-09-29T01:49:28.897Z,10.40
2022-09-29T01:52:00.072Z,9.02
2022-09-29T01:54:30.602Z,9.63
2022-09-29T01:57:02.111Z,9.18
2022-09-29T01:59:34.756Z,9.65
2022-09-29T02:02:07.437Z,9.63
2022-09-29T02:04:39.096Z,9.77
2022-09-29T02:07:10.176Z,10.40
2022-09-29T02:09:40.390Z,13.40
2022-09-29T02:12:10.066Z,10.35
2022-09-29T02:14:39.778Z,11.57
2022-09-29T02:17:12.338Z,12.07
2022-09-29T02:19:42.178Z,11.93
2022-09-29T02:22:10.106Z,11.80
2022-09-29T02:24:37.988Z,12.85
2022-09-29T02:27:06.394Z,11.38
2022-09-29T02:29:34.815Z,12.70
2022-09-29T02:32:03.627Z,12.25
2022-09-29T02:34:33.849Z,11.90
2022-09-29T02:37:10.962Z,12.07
2022-09-29T02:39:44.393Z,12.35
2022-09-29T02:42:20.262Z,11.82
2022-09-29T02:44:59.905Z,12.60
2022-09-29T02:47:52.097Z,12.70
2022-09-29T02:50:37.497Z,12.60
2022-09-29T02:53:11.082Z,12.60
2022-09-29T02:55:42.957Z,13.10
2022-09-29T02:58:15.689Z,12.50
2022-09-29T03:00:44.114Z,12.10
2022-09-29T03:03:11.991Z,12.65
2022-09-29T03:05:41.280Z,15.20
2022-09-29T03:08:09.040Z,14.00
2022-09-29T03:10:36.870Z,13.13
2022-09-29T03:13:04.709Z,13.53
2022-09-29T03:15:32.418Z,13.98
2022-09-29T03:18:00.407Z,13.82
2022-09-29T03:20:28.161Z,15.15
2022-09-29T03:22:58.541Z,15.45
2022-09-29T03:25:26.677Z,15.57
2022-09-29T03:27:54.487Z,15.95
2022-09-29T03:30:23.405Z,14.45
2022-09-29T03:32:51.388Z,15.05
2022-09-29T03:35:19.202Z,15.05
2022-09-29T03:37:47.067Z,16.07
2022-09-29T03:40:16.365Z,15.48
2022-09-29T03:42:46.759Z,15.93
2022-09-29T03:45:14.614Z,14.90
2022-09-29T03:47:42.425Z,15.05
2022-09-29T03:50:10.999Z,15.88
2022-09-29T03:52:38.834Z,15.30
2022-09-29T03:55:07.502Z,15.93
2022-09-29T03:57:36.702Z,16.40
2022-09-29T04:00:05.031Z,14.52
2022-09-29T04:02:36.149Z,15.38
2022-09-29T04:05:04.132Z,14.50
2022-09-29T04:07:32.535Z,14.63
2022-09-29T04:10:00.300Z,13.93
2022-09-29T04:12:28.119Z,14.73
2022-09-29T04:14:57.402Z,15.85
2022-09-29T04:17:25.161Z,14.80
2022-09-29T04:19:53.270Z,14.35
2022-09-29T04:22:21.602Z,15.50
2022-09-29T04:24:49.344Z,14.97
2022-09-29T04:27:17.259Z,14.50
2022-09-29T04:29:45.096Z,15.60
2022-09-29T04:32:14.241Z,14.88
2022-09-29T04:34:42.040Z,14.32
2022-09-29T04:37:11.834Z,13.85
2022-09-29T04:39:39.669Z,13.88
2022-09-29T04:42:08.097Z,14.43
2022-09-29T04:44:35.936Z,15.68
2022-09-29T04:47:03.676Z,15.63
2022-09-29T04:49:32.836Z,15.13
2022-09-29T04:52:00.524Z,14.25
2022-09-29T04:54:36.795Z,13.83
2022-09-29T04:57:05.945Z,13.80
2022-09-29T04:59:34.088Z,14.50
2022-09-29T05:02:01.934Z,13.70
2022-09-29T05:04:29.754Z,13.77
2022-09-29T05:06:58.865Z,14.98
2022-09-29T05:09:31.164Z,13.85
2022-09-29T05:12:01.140Z,12.77
2022-09-29T05:14:28.868Z,13.70
2022-09-29T05:16:56.757Z,16.50
2022-09-29T05:19:24.635Z,14.10
2022-09-29T05:21:52.429Z,14.00
2022-09-29T05:24:21.515Z,13.65
2022-09-29T05:26:49.268Z,13.77
2022-09-29T05:29:17.267Z,13.57
2022-09-29T05:31:45.299Z,13.35
2022-09-29T05:34:13.159Z,14.23
2022-09-29T05:36:40.884Z,14.25
2022-09-29T05:39:08.709Z,15.25
2022-09-29T05:41:37.911Z,17.27
2022-09-29T05:44:05.665Z,15.43
2022-09-29T05:46:33.487Z,14.95
2022-09-29T05:49:01.268Z,17.45
2022-09-29T05:51:29.048Z,15.93
2022-09-29T05:53:56.925Z,14.60
2022-09-29T05:56:26.061Z,14.35
2022-09-29T05:58:55.439Z,14.02
2022-09-29T06:01:24.813Z,15.65
2022-09-29T06:03:54.420Z,16.08
2022-09-29T06:06:23.622Z,15.77
2022-09-29T06:08:51.911Z,14.83
2022-09-29T06:11:21.615Z,15.68
2022-09-29T06:13:50.620Z,17.80
2022-09-29T06:16:21.438Z,15.43
2022-09-29T06:18:49.505Z,15.13
2022-09-29T06:21:19.456Z,14.55
2022-09-29T06:23:47.461Z,14.90
2022-09-29T06:26:21.427Z,14.65
2022-09-29T06:28:51.362Z,14.70
2022-09-29T06:31:22.153Z,13.80
2022-09-29T06:33:50.063Z,14.10
2022-09-29T06:36:37.776Z,14.68
2022-09-29T06:39:06.247Z,15.10
2022-09-29T06:41:35.252Z,15.25
2022-09-29T06:44:03.386Z,14.45
2022-09-29T06:46:33.901Z,15.05
2022-09-29T06:49:01.668Z,15.52
2022-09-29T06:51:41.214Z,19.52
2022-09-29T06:54:12.907Z,18.25
2022-09-29T06:56:40.743Z,17.15
2022-09-29T06:59:08.637Z,16.05
2022-09-29T07:01:37.845Z,16.30
2022-09-29T07:04:05.640Z,15.10
2022-09-29T07:06:33.442Z,15.73
2022-09-29T07:09:01.328Z,15.10
2022-09-29T07:11:29.417Z,15.35
2022-09-29T07:13:57.158Z,14.75
2022-09-29T07:16:25.381Z,15.20
2022-09-29T07:18:54.723Z,13.48
2022-09-29T07:21:22.729Z,35.42
2022-09-29T07:23:51.070Z,17.23
2022-09-29T07:26:19.163Z,13.07
2022-09-29T07:28:47.448Z,11.10
2022-09-29T07:31:16.918Z,11.18
2022-09-29T07:33:45.263Z,11.07
2022-09-29T07:36:15.642Z,12.40
2022-09-29T07:38:46.250Z,11.23
2022-09-29T07:41:14.457Z,10.95
2022-09-29T07:43:42.406Z,8.87
2022-09-29T07:46:10.645Z,9.77
2022-09-29T07:48:39.827Z,10.03
2022-09-29T07:51:09.975Z,9.25
2022-09-29T07:53:39.281Z,8.77
2022-09-29T07:56:08.770Z,7.37
2022-09-29T07:58:37.636Z,7.13
2022-09-29T08:01:06.632Z,7.22
2022-09-29T08:03:34.821Z,6.45
2022-09-29T08:06:02.652Z,6.27
2022-09-29T08:08:30.545Z,6.63
2022-09-29T08:11:07.654Z,7.15
2022-09-29T08:13:37.265Z,6.30
2022-09-29T08:16:06.810Z,6.75
2022-09-29T08:18:35.847Z,6.00
2022-09-29T08:21:04.530Z,6.10
2022-09-29T08:23:32.825Z,6.13
2022-09-29T08:26:02.601Z,8.23
2022-09-29T08:28:32.918Z,6.78
2022-09-29T08:31:04.556Z,6.57
2022-09-29T08:33:33.275Z,8.07
2022-09-29T08:36:01.584Z,6.82
2022-09-29T08:38:29.476Z,8.00
2022-09-29T08:40:58.398Z,8.65
2022-09-29T08:43:35.047Z,8.52
2022-09-29T08:46:08.237Z,8.10
2022-09-29T08:48:52.035Z,6.90
2022-09-29T08:51:39.106Z,7.13
2022-09-29T08:54:19.573Z,8.77
2022-09-29T08:56:54.088Z,6.63
2022-09-29T08:59:25.197Z,6.53
2022-09-29T09:02:06.111Z,6.07
2022-09-29T09:05:00.245Z,6.80
2022-09-29T09:07:35.304Z,6.15
2022-09-29T09:10:15.546Z,8.63
2022-09-29T09:12:56.033Z,5.35
2022-09-29T09:15:34.407Z,6.57
2022-09-29T09:18:20.299Z,6.22
2022-09-29T09:20:54.629Z,9.02
2022-09-29T09:23:24.411Z,8.02
2022-09-29T09:25:55.079Z,7.03
2022-09-29T09:28:28.752Z,8.38
2022-09-29T09:30:59.581Z,6.30
2022-09-29T09:33:32.297Z,5.07
2022-09-29T09:36:03.903Z,6.22
2022-09-29T09:38:42.406Z,7.25
2022-09-29T09:41:11.291Z,8.38
2022-09-29T09:43:42.609Z,4.63
2022-09-29T09:46:15.686Z,6.25
2022-09-29T09:48:46.751Z,4.32
2022-09-29T09:51:32.995Z,6.10
2022-09-29T09:54:06.218Z,7.60
2022-09-29T09:56:46.758Z,6.18
2022-09-29T09:59:23.929Z,4.63
2022-09-29T10:01:51.733Z,5.63
2022-09-29T10:04:20.857Z,6.80
2022-09-29T10:06:48.688Z,4.43
2022-09-29T10:09:17.012Z,5.25
2022-09-29T10:11:44.974Z,4.38
2022-09-29T10:14:16.824Z,3.67
2022-09-29T10:16:47.436Z,4.88
2022-09-29T10:19:16.447Z,3.67
2022-09-29T10:21:45.749Z,3.38
2022-09-29T10:24:28.812Z,4.85
2022-09-29T10:26:58.220Z,5.45
2022-09-29T10:29:30.234Z,3.85
2022-09-29T10:32:03.811Z,6.80
2022-09-29T10:34:32.172Z,3.33
2022-09-29T10:37:03.240Z,4.32
2022-09-29T10:39:33.941Z,4.38
2022-09-29T10:42:02.412Z,5.97
2022-09-29T10:44:33.565Z,4.20
2022-09-29T10:47:01.627Z,5.20
2022-09-29T10:49:30.914Z,6.32
2022-09-29T10:52:03.378Z,3.92
2022-09-29T10:54:34.597Z,3.63
2022-09-29T10:57:13.343Z,3.45
2022-09-29T10:59:47.994Z,3.20
2022-09-29T11:02:22.264Z,4.80
2022-09-29T11:04:50.506Z,3.45
2022-09-29T11:07:19.913Z,4.18
2022-09-29T11:09:47.730Z,1.92
2022-09-29T11:12:27.816Z,1.98
2022-09-29T11:14:55.682Z,2.00
2022-09-29T11:17:25.587Z,1.67
2022-09-29T11:19:54.462Z,2.80
2022-09-29T11:22:58.270Z,2.15
2022-09-29T11:26:05.614Z,2.00
2022-09-29T11:28:42.181Z,3.13
2022-09-29T11:31:30.565Z,3.17
2022-09-29T11:34:07.548Z,3.83
2022-09-29T11:36:42.248Z,3.22
2022-09-29T11:39:21.356Z,2.53
2022-09-29T11:42:00.174Z,3.70
2022-09-29T11:44:48.646Z,3.17
2022-09-29T11:47:25.071Z,3.30
2022-09-29T11:50:13.181Z,5.10
2022-09-29T11:52:56.789Z,4.23
2022-09-29T11:55:38.823Z,3.90
2022-09-29T11:58:19.422Z,3.53
2022-09-29T12:01:00.146Z,3.17
2022-09-29T12:03:37.004Z,3.22
2022-09-29T12:06:22.269Z,3.78
2022-09-29T12:08:57.935Z,2.38
2022-09-29T12:14:26.211Z,3.40
2022-09-29T12:16:58.778Z,2.28
2022-09-29T12:19:29.785Z,1.67
2022-09-29T12:22:00.007Z,3.60
2022-09-29T12:24:35.581Z,1.88
2022-09-29T12:27:07.030Z,1.90
2022-09-29T12:29:37.200Z,2.90
2022-09-29T12:32:09.682Z,3.22
2022-09-29T12:34:43.408Z,3.83
2022-09-29T12:37:16.975Z,3.15
2022-09-29T12:39:49.524Z,5.18
2022-09-29T12:42:45.675Z,2.63
2022-09-29T12:45:17.391Z,3.25
2022-09-29T12:47:51.540Z,4.10
2022-09-29T12:50:21.130Z,3.78
2022-09-29T12:52:55.296Z,2.60
2022-09-29T12:55:27.763Z,4.03
2022-09-29T12:57:57.833Z,2.75
2022-09-29T13:00:26.428Z,2.63
2022-09-29T13:03:24.173Z,2.85
2022-09-29T13:06:07.933Z,2.80
2022-09-29T13:08:49.118Z,2.92
2022-09-29T13:11:26.461Z,2.35
2022-09-29T13:14:28.922Z,3.05
2022-09-29T13:17:04.923Z,1.95
2022-09-29T13:19:57.240Z,2.57
2022-09-29T13:22:40.147Z,2.60
2022-09-29T13:25:16.129Z,3.20
2022-09-29T13:27:45.609Z,2.35
2022-09-29T13:30:17.254Z,3.45
2022-09-29T13:32:48.031Z,2.45
2022-09-29T13:35:18.370Z,3.72
2022-09-29T13:37:49.977Z,5.15
2022-09-29T13:40:20.986Z,4.10
2022-09-29T13:42:49.453Z,3.60
2022-09-29T13:45:44.766Z,3.10
2022-09-29T13:48:52.644Z,3.28
2022-09-29T13:51:47.876Z,2.53
2022-09-29T13:54:39.266Z,3.65
2022-09-29T13:57:28.083Z,2.13
2022-09-29T14:00:25.634Z,2.90
2022-09-29T14:03:26.983Z,2.03
2022-09-29T14:05:57.068Z,1.92
2022-09-29T14:08:32.921Z,2.15
2022-09-29T14:11:06.008Z,2.72
2022-09-29T14:13:40.887Z,2.03
2022-09-29T14:16:18.220Z,2.88
2022-09-29T14:18:50.216Z,3.20
2022-09-29T14:21:53.674Z,3.47
2022-09-29T14:24:50.423Z,3.00
2022-09-29T14:27:31.792Z,2.63
2022-09-29T14:30:08.770Z,3.73
2022-09-29T14:32:42.303Z,2.40
2022-09-29T14:35:21.386Z,3.33
2022-09-29T14:37:54.068Z,3.25
2022-09-29T14:40:30.791Z,2.25
2022-09-29T14:43:13.292Z,2.03
2022-09-29T14:46:12.116Z,2.17
2022-09-29T14:49:05.425Z,2.33
2022-09-29T14:51:54.230Z,2.50
2022-09-29T14:54:29.358Z,3.17
2022-09-29T14:57:06.946Z,2.90
2022-09-29T14:59:44.788Z,3.55
2022-09-29T15:02:23.089Z,2.22
2022-09-29T15:04:51.480Z,2.67
2022-09-29T15:07:22.458Z,2.03
2022-09-29T15:09:52.538Z,2.20
2022-09-29T15:12:26.385Z,2.50
2022-09-29T15:14:54.812Z,2.35
2022-09-29T15:17:31.988Z,2.15
2022-09-29T15:20:08.047Z,1.95
2022-09-29T15:23:11.073Z,2.88
2022-09-29T15:25:40.712Z,2.80
2022-09-29T15:28:14.097Z,2.78
2022-09-29T15:30:42.147Z,2.60
2022-09-29T15:33:24.091Z,3.47
2022-09-29T15:35:53.596Z,7.75
2022-09-29T15:38:33.129Z,2.67
2022-09-29T15:41:03.714Z,2.57
2022-09-29T15:43:35.538Z,2.30
2022-09-29T15:46:13.382Z,2.30
2022-09-29T15:48:41.245Z,2.42
2022-09-29T15:51:18.794Z,1.70
2022-09-29T15:53:47.952Z,1.83
2022-09-29T15:56:15.740Z,2.38
2022-09-29T15:58:47.907Z,2.30
2022-09-29T16:01:18.870Z,1.63
2022-09-29T16:03:50.800Z,1.97
2022-09-29T16:06:23.540Z,3.58
2022-09-29T16:08:55.848Z,3.30
2022-09-29T16:11:26.280Z,3.50
2022-09-29T16:14:00.841Z,2.72
2022-09-29T16:16:35.746Z,2.28
2022-09-29T16:19:08.838Z,9.37
2022-09-29T16:21:37.980Z,3.80
2022-09-29T16:24:12.709Z,4.30
2022-09-29T16:26:42.613Z,5.63
2022-09-29T16:29:30.930Z,3.50
2022-09-29T16:31:59.585Z,3.65
2022-09-29T16:34:30.025Z,2.83
2022-09-29T16:37:00.088Z,3.42
2022-09-29T16:39:32.469Z,3.85
2022-09-29T16:42:03.244Z,3.60
2022-09-29T16:44:33.087Z,6.07
2022-09-29T16:47:04.168Z,5.28
2022-09-29T16:49:33.380Z,3.95
2022-09-29T16:52:04.918Z,4.40
2022-09-29T16:54:34.948Z,4.78
2022-09-29T16:57:27.615Z,3.53
2022-09-29T16:59:56.664Z,4.90
2022-09-29T17:02:25.258Z,13.03
2022-09-29T17:04:53.802Z,4.28
2022-09-29T17:07:23.480Z,3.50
2022-09-29T17:09:55.741Z,3.78
2022-09-29T17:12:23.922Z,3.30
2022-09-29T17:14:51.985Z,4.30
2022-09-29T17:17:22.430Z,5.68
2022-09-29T17:19:50.366Z,6.75
2022-09-29T17:22:30.836Z,6.18
2022-09-29T17:25:00.370Z,4.68
2022-09-29T17:27:52.109Z,5.97
2022-09-29T17:30:22.813Z,7.35
2022-09-29T17:32:50.877Z,6.82
2022-09-29T17:35:21.273Z,7.40
2022-09-29T17:37:49.890Z,7.47
2022-09-29T17:40:21.903Z,7.68
2022-09-29T17:42:49.772Z,6.20
2022-09-29T17:45:18.383Z,9.80
2022-09-29T17:47:47.053Z,5.95
2022-09-29T17:50:20.138Z,6.72
2022-09-29T17:52:47.875Z,5.63
2022-09-29T17:55:15.683Z,5.93
2022-09-29T17:57:45.634Z,6.80
2022-09-29T18:00:16.895Z,6.22
2022-09-29T18:02:44.792Z,6.50
2022-09-29T18:05:12.495Z,7.90
2022-09-29T18:07:40.361Z,11.10
2022-09-29T18:10:18.832Z,11.60
2022-09-29T18:12:47.977Z,19.27
2022-09-29T18:15:17.038Z,17.35
2022-09-29T18:17:45.441Z,16.35
2022-09-29T18:20:15.871Z,13.57
2022-09-29T18:22:45.971Z,11.95
2022-09-29T18:25:14.416Z,11.25
2022-09-29T18:27:42.336Z,9.55
2022-09-29T18:30:19.639Z,7.80
2022-09-29T18:32:48.719Z,11.45
2022-09-29T18:35:18.951Z,10.85
2022-09-29T18:37:46.791Z,8.40
2022-09-29T18:40:15.098Z,10.63
2022-09-29T18:42:43.740Z,9.32
2022-09-29T18:45:13.304Z,10.15
2022-09-29T18:47:43.963Z,9.65
2022-09-29T18:50:19.354Z,11.32
2022-09-29T18:52:48.076Z,8.40
2022-09-29T18:55:17.724Z,9.83
2022-09-29T18:57:45.771Z,10.55
2022-09-29T19:00:15.175Z,9.38
2022-09-29T19:02:45.509Z,9.85
2022-09-29T19:05:16.924Z,9.75
2022-09-29T19:07:44.864Z,8.70
2022-09-29T19:10:14.175Z,8.23
2022-09-29T19:12:45.785Z,9.70
2022-09-29T19:15:13.686Z,8.90
2022-09-29T19:17:41.663Z,7.23
2022-09-29T19:20:11.271Z,8.43
2022-09-29T19:22:42.443Z,9.13
2022-09-29T19:25:12.775Z,10.07
2022-09-29T19:27:42.035Z,9.05
2022-09-29T19:30:11.528Z,11.90
2022-09-29T19:32:39.543Z,9.27
2022-09-29T19:35:11.742Z,11.55
2022-09-29T19:37:39.810Z,7.65
2022-09-29T19:40:10.101Z,7.88
2022-09-29T19:42:37.873Z,10.93
2022-09-29T19:45:06.385Z,8.27
2022-09-29T19:47:34.175Z,7.97
2022-09-29T19:50:16.203Z,10.23
2022-09-29T19:52:45.482Z,11.77
2022-09-29T19:55:14.462Z,11.68
2022-09-29T19:57:42.527Z,11.05
2022-09-29T20:00:11.941Z,9.38
2022-09-29T20:02:44.248Z,10.63
2022-09-29T20:05:12.480Z,9.40
2022-09-29T20:07:40.853Z,12.52
2022-09-29T20:10:11.149Z,11.35
2022-09-29T20:12:39.317Z,11.13
2022-09-29T20:15:08.268Z,10.98
2022-09-29T20:17:36.269Z,9.80
2022-09-29T20:20:04.979Z,10.10
2022-09-29T20:22:34.128Z,9.23
2022-09-29T20:25:02.187Z,9.48
2022-09-29T20:27:31.837Z,11.95
2022-09-29T20:29:59.617Z,12.13
2022-09-29T20:32:28.508Z,11.40
2022-09-29T20:34:56.554Z,14.23
2022-09-29T20:37:25.430Z,12.90
2022-09-29T20:39:54.763Z,12.60
2022-09-29T20:42:22.964Z,16.15
2022-09-29T20:44:56.232Z,12.68
2022-09-29T20:47:25.493Z,16.48
2022-09-29T20:49:56.360Z,13.75
2022-09-29T20:52:24.546Z,14.00
2022-09-29T20:54:52.428Z,16.38
2022-09-29T20:57:20.198Z,12.82
2022-09-29T20:59:48.281Z,12.32
2022-09-29T21:02:17.518Z,10.80
2022-09-29T21:04:45.315Z,12.25
2022-09-29T21:07:26.939Z,13.30
2022-09-29T21:09:54.974Z,12.05
2022-09-29T21:12:22.691Z,13.13
2022-09-29T21:14:50.455Z,12.57
2022-09-29T21:17:19.684Z,10.32
2022-09-29T21:19:47.594Z,10.32
2022-09-29T21:22:15.434Z,10.70
2022-09-29T21:24:44.081Z,10.40
2022-09-29T21:27:12.004Z,11.18
2022-09-29T21:29:39.948Z,12.52
2022-09-29T21:32:07.825Z,10.18
2022-09-29T21:34:37.119Z,15.13
2022-09-29T21:37:04.993Z,9.85
2022-09-29T21:39:32.880Z,12.30
2022-09-29T21:42:00.789Z,10.95
2022-09-29T21:44:29.095Z,11.77
2022-09-29T21:46:57.118Z,16.25
2022-09-29T21:49:25.033Z,16.45
2022-09-29T21:51:54.257Z,18.13
2022-09-29T21:54:24.782Z,16.00
2022-09-29T21:56:53.325Z,19.00
2022-09-29T21:59:22.677Z,17.60
2022-09-29T22:01:51.944Z,17.30
2022-09-29T22:04:20.538Z,16.77
2022-09-29T22:06:48.598Z,21.00
2022-09-29T22:09:20.419Z,17.13
2022-09-29T22:11:50.031Z,17.30
2022-09-29T22:14:18.955Z,16.65
2022-09-29T22:16:46.931Z,16.90
2022-09-29T22:19:24.001Z,15.50
2022-09-29T22:21:52.663Z,17.40
2022-09-29T22:24:23.761Z,19.17
2022-09-29T22:26:51.863Z,18.30
2022-09-29T22:29:19.904Z,15.60
2022-09-29T22:31:47.998Z,15.13
2022-09-29T22:34:16.000Z,15.38
2022-09-29T22:36:44.173Z,14.30
2022-09-29T22:39:12.156Z,14.13
2022-09-29T22:41:41.415Z,13.43
2022-09-29T22:44:10.153Z,14.52
2022-09-29T22:46:38.046Z,12.38
2022-09-29T22:49:06.342Z,13.80
2022-09-29T22:51:34.239Z,15.68
2022-09-29T22:54:02.179Z,13.40
2022-09-29T22:56:30.040Z,12.13
2022-09-29T22:59:03.089Z,13.30
2022-09-29T23:01:33.188Z,14.13
2022-09-29T23:04:01.772Z,10.88
2022-09-29T23:06:29.635Z,12.40
2022-09-29T23:08:57.585Z,12.25
2022-09-29T23:11:25.519Z,12.02
2022-09-29T23:13:53.868Z,12.63
2022-09-29T23:16:23.249Z,11.20
2022-09-29T23:18:54.141Z,13.10
2022-09-29T23:21:22.342Z,12.10
2022-09-29T23:23:54.117Z,13.10
2022-09-29T23:26:22.045Z,11.13
2022-09-29T23:28:50.118Z,11.05
2022-09-29T23:31:18.109Z,10.93
2022-09-29T23:33:52.237Z,11.60
2022-09-29T23:36:20.139Z,10.60
2022-09-29T23:39:05.222Z,11.60
2022-09-29T23:41:33.281Z,10.53
2022-09-29T23:44:03.175Z,10.10
2022-09-29T23:46:31.442Z,9.67
2022-09-29T23:49:02.102Z,8.20
2022-09-29T23:51:31.987Z,11.00
2022-09-29T23:54:00.041Z,9.45
2022-09-29T23:56:28.264Z,9.80
2022-09-29T23:58:56.364Z,11.30
